Time;durP1;ratioP1;P1;durP2;ratioP2;P2;SDS_P1;SDS_P2;PMS_P1;PMS_P2;Temp;Humidity;BMP_temperature;BMP_pressure;BME280_temperature;BME280_humidity;BME280_pressure;Samples;Min_cycle;Max_cycle;Signal;HPM_P1;HPM_P2
2021/09/27 00:00:38;;;;;;;16.02;13.05;;;16.70;99.90;;;;;;5015587;28;20030;-87
2021/09/27 00:03:05;;;;;;;14.38;12.00;;;16.70;99.90;;;;;;5015573;28;20057;-87
2021/09/27 00:05:31;;;;;;;13.52;11.60;;;16.60;99.90;;;;;;5015936;28;20408;-87
2021/09/27 00:07:57;;;;;;;15.20;11.93;;;16.60;99.90;;;;;;5016796;28;20449;-87
2021/09/27 00:10:28;;;;;;;16.42;11.00;;;16.60;99.90;;;;;;5015612;28;20041;-87
2021/09/27 00:12:55;;;;;;;14.60;12.00;;;16.60;99.90;;;;;;5015924;28;20113;-87
2021/09/27 00:15:32;;;;;;;14.50;11.23;;;16.70;99.90;;;;;;5017112;28;20014;-88
2021/09/27 00:17:58;;;;;;;14.35;10.85;;;16.70;99.90;;;;;;5015384;28;20025;-87
2021/09/27 00:20:24;;;;;;;15.95;12.05;;;16.80;99.90;;;;;;5015706;28;20029;-86
2021/09/27 00:22:50;;;;;;;16.17;11.70;;;16.80;99.90;;;;;;5015916;28;20025;-87
2021/09/27 00:25:22;;;;;;;13.07;11.63;;;16.80;99.90;;;;;;5015052;28;20025;-87
2021/09/27 00:27:48;;;;;;;18.40;12.10;;;16.80;99.90;;;;;;5015112;28;20109;-87
2021/09/27 00:30:17;;;;;;;15.25;10.60;;;16.90;99.90;;;;;;5014852;28;20486;-87
2021/09/27 00:32:43;;;;;;;12.30;9.70;;;16.80;99.90;;;;;;5013963;28;20021;-88
2021/09/27 00:35:10;;;;;;;11.88;9.68;;;16.80;99.90;;;;;;5014812;28;20076;-87
2021/09/27 00:37:36;;;;;;;10.90;9.80;;;16.70;99.90;;;;;;5014859;28;20537;-87
2021/09/27 00:40:05;;;;;;;11.95;9.98;;;16.60;99.90;;;;;;5016538;28;20096;-87
2021/09/27 00:42:31;;;;;;;16.27;10.65;;;16.70;99.90;;;;;;5014914;28;20425;-87
2021/09/27 00:44:57;;;;;;;16.17;10.48;;;16.40;99.90;;;;;;5014822;28;20026;-87
2021/09/27 00:47:23;;;;;;;19.20;10.20;;;16.30;99.90;;;;;;5015457;28;20025;-87
2021/09/27 00:49:49;;;;;;;11.30;9.13;;;16.40;99.90;;;;;;5014845;28;20367;-87
2021/09/27 00:52:16;;;;;;;11.68;9.60;;;16.60;99.90;;;;;;5014542;28;20029;-87
2021/09/27 00:54:44;;;;;;;15.18;9.75;;;16.70;99.90;;;;;;5014503;28;20049;-87
2021/09/27 00:57:15;;;;;;;12.68;11.25;;;16.70;99.90;;;;;;5014464;28;20026;-88
2021/09/27 00:59:42;;;;;;;13.45;11.43;;;16.80;99.90;;;;;;5014557;28;20164;-87
2021/09/27 01:02:10;;;;;;;14.65;11.15;;;16.80;99.90;;;;;;5014307;28;20472;-87
2021/09/27 01:04:38;;;;;;;12.15;10.18;;;16.70;99.90;;;;;;5014313;28;20033;-87
2021/09/27 01:07:27;;;;;;;11.65;10.45;;;16.50;99.90;;;;;;5014318;28;20033;-87
2021/09/27 01:10:31;;;;;;;15.73;11.15;;;16.60;99.90;;;;;;5014271;28;20025;-87
2021/09/27 01:13:16;;;;;;;14.25;10.93;;;16.70;99.90;;;;;;5011076;28;20117;-87
2021/09/27 01:15:57;;;;;;;15.65;11.75;;;16.70;99.90;;;;;;5014691;28;20018;-87
2021/09/27 01:18:41;;;;;;;14.60;11.57;;;16.70;99.90;;;;;;5014313;28;20064;-87
2021/09/27 01:21:39;;;;;;;15.00;12.05;;;16.70;99.90;;;;;;5014183;28;20022;-87
2021/09/27 01:24:47;;;;;;;15.65;11.88;;;16.70;99.90;;;;;;5017575;28;20044;-87
2021/09/27 01:27:35;;;;;;;12.20;10.68;;;16.80;99.90;;;;;;4990078;28;20040;-87
2021/09/27 01:30:03;;;;;;;14.85;11.85;;;16.80;99.90;;;;;;5014336;28;20375;-87
2021/09/27 01:32:50;;;;;;;11.02;9.93;;;16.70;99.90;;;;;;5014209;28;20026;-87
2021/09/27 01:35:37;;;;;;;13.40;10.25;;;16.70;99.90;;;;;;5013969;28;20022;-88
2021/09/27 01:38:14;;;;;;;15.32;11.65;;;16.70;99.90;;;;;;5013878;28;20504;-87
2021/09/27 01:40:46;;;;;;;15.90;11.32;;;16.70;99.90;;;;;;5013530;28;20045;-87
2021/09/27 01:43:32;;;;;;;13.77;11.32;;;16.60;99.90;;;;;;5013938;28;20025;-87
2021/09/27 01:46:13;;;;;;;14.20;12.13;;;16.50;99.90;;;;;;5013938;28;20450;-86
2021/09/27 01:49:06;;;;;;;15.68;11.18;;;16.30;99.90;;;;;;5013540;28;20038;-87
2021/09/27 01:51:52;;;;;;;13.40;11.68;;;16.30;99.90;;;;;;5013900;28;20037;-87
2021/09/27 01:54:29;;;;;;;16.70;11.85;;;16.30;99.90;;;;;;5013418;28;20080;-87
2021/09/27 01:57:05;;;;;;;15.75;11.30;;;16.30;99.90;;;;;;5013673;28;20401;-87
2021/09/27 01:59:50;;;;;;;13.38;10.88;;;16.40;99.90;;;;;;5013441;28;20485;-87
2021/09/27 02:02:56;;;;;;;13.23;10.98;;;16.40;99.90;;;;;;5013270;28;20022;-87
2021/09/27 02:05:39;;;;;;;13.60;10.50;;;16.50;99.90;;;;;;4996598;28;20030;-86
2021/09/27 02:08:32;;;;;;;11.52;10.30;;;16.40;99.90;;;;;;5013186;28;20371;-87
2021/09/27 02:11:13;;;;;;;11.68;10.18;;;16.50;99.90;;;;;;5013040;28;20029;-87
2021/09/27 02:14:12;;;;;;;13.10;11.23;;;16.40;99.90;;;;;;5013128;28;20470;-87
2021/09/27 02:16:52;;;;;;;15.27;11.18;;;16.30;99.90;;;;;;5013051;28;20026;-87
2021/09/27 02:19:17;;;;;;;14.20;11.40;;;16.20;99.90;;;;;;5012987;28;20018;-87
2021/09/27 02:21:49;;;;;;;15.57;11.98;;;16.10;99.90;;;;;;5012842;28;20033;-87
2021/09/27 02:24:31;;;;;;;14.05;10.68;;;16.10;99.90;;;;;;5013153;28;20030;-87
2021/09/27 02:26:57;;;;;;;13.50;11.10;;;16.20;99.90;;;;;;5012915;28;20041;-87
2021/09/27 02:29:23;;;;;;;14.75;10.85;;;16.10;99.90;;;;;;5014354;28;20096;-87
2021/09/27 02:32:09;;;;;;;14.13;10.55;;;16.00;99.90;;;;;;5012669;28;20394;-87
2021/09/27 02:35:01;;;;;;;12.85;11.35;;;16.00;99.90;;;;;;5012662;28;20072;-88
2021/09/27 02:37:49;;;;;;;15.07;12.35;;;16.00;99.90;;;;;;5012638;28;20026;-87
2021/09/27 02:40:30;;;;;;;14.05;10.30;;;16.10;99.90;;;;;;5031169;28;20056;-87
2021/09/27 02:42:59;;;;;;;12.07;10.88;;;16.10;99.90;;;;;;5053437;28;20025;-87
2021/09/27 02:45:28;;;;;;;16.23;11.35;;;16.00;99.90;;;;;;5035390;28;20025;-87
2021/09/27 02:48:15;;;;;;;12.85;10.93;;;16.00;99.90;;;;;;5053358;28;20388;-88
2021/09/27 02:50:51;;;;;;;17.75;11.25;;;15.90;99.90;;;;;;5036224;28;20021;-85
2021/09/27 02:53:20;;;;;;;14.52;9.98;;;15.90;99.90;;;;;;5053873;28;20036;-86
2021/09/27 02:56:06;;;;;;;18.63;11.68;;;15.90;99.90;;;;;;5034861;28;20112;-86
2021/09/27 02:59:02;;;;;;;16.90;11.38;;;15.90;99.90;;;;;;5035532;28;20090;-87
2021/09/27 03:01:40;;;;;;;13.90;11.32;;;15.90;99.90;;;;;;5036396;28;20051;-86
2021/09/27 03:04:52;;;;;;;12.43;11.23;;;15.80;99.90;;;;;;5036234;28;20099;-87
2021/09/27 03:07:45;;;;;;;13.88;11.07;;;15.70;99.90;;;;;;5030547;28;20064;-87
2021/09/27 03:10:33;;;;;;;18.17;10.55;;;15.70;99.90;;;;;;5035435;28;20059;-88
2021/09/27 03:13:13;;;;;;;13.75;10.65;;;15.80;99.90;;;;;;5035196;28;20427;-88
2021/09/27 03:16:05;;;;;;;12.05;10.02;;;15.80;99.90;;;;;;5035161;28;20027;-87
2021/09/27 03:18:55;;;;;;;11.68;9.73;;;15.80;99.90;;;;;;5035458;28;20371;-88
2021/09/27 03:21:30;;;;;;;15.30;10.68;;;15.80;99.90;;;;;;5035368;28;20051;-87
2021/09/27 03:24:24;;;;;;;12.43;10.10;;;15.90;99.90;;;;;;5053381;28;20025;-88
2021/09/27 03:26:56;;;;;;;10.98;9.85;;;15.90;99.90;;;;;;5035095;28;20546;-88
2021/09/27 03:29:51;;;;;;;13.40;10.77;;;16.00;99.90;;;;;;5035886;28;20038;-87
2021/09/27 03:32:34;;;;;;;11.70;9.77;;;16.10;99.90;;;;;;5035637;28;20029;-88
2021/09/27 03:35:19;;;;;;;11.88;9.90;;;16.20;99.90;;;;;;5037941;28;20025;-87
2021/09/27 03:38:14;;;;;;;13.07;10.38;;;16.30;99.90;;;;;;5039058;28;20112;-87
2021/09/27 03:41:01;;;;;;;13.32;11.13;;;16.30;99.90;;;;;;5036432;28;20519;-88
2021/09/27 03:43:48;;;;;;;11.27;9.80;;;16.30;99.90;;;;;;5035917;28;20065;-87
2021/09/27 03:46:25;;;;;;;10.90;9.73;;;16.30;99.90;;;;;;5035302;28;20044;-87
2021/09/27 03:49:01;;;;;;;12.30;10.60;;;16.20;99.90;;;;;;5035736;28;20025;-88
2021/09/27 03:51:57;;;;;;;12.13;9.80;;;16.20;99.90;;;;;;5035717;28;20055;-88
2021/09/27 03:54:39;;;;;;;12.18;9.77;;;16.10;99.90;;;;;;5029907;28;20029;-88
2021/09/27 03:57:34;;;;;;;12.60;9.88;;;16.10;99.90;;;;;;5052843;28;20021;-87
2021/09/27 04:00:09;;;;;;;12.02;9.77;;;16.20;99.90;;;;;;5052715;28;20480;-87
2021/09/27 04:02:51;;;;;;;14.48;10.07;;;16.10;99.90;;;;;;5034846;28;20496;-88
2021/09/27 04:05:28;;;;;;;14.05;10.70;;;16.10;99.90;;;;;;5052691;28;20480;-87
2021/09/27 04:08:12;;;;;;;11.25;10.05;;;16.00;99.90;;;;;;5035619;28;20117;-87
2021/09/27 04:10:46;;;;;;;14.63;11.07;;;15.90;99.90;;;;;;5056833;28;20027;-87
2021/09/27 04:13:16;;;;;;;;;;;15.70;99.90;;;;;;5057060;28;20074;-88
2021/09/27 04:16:03;;;;;;;11.70;9.80;;;15.50;99.90;;;;;;5039215;28;19904;-87
2021/09/27 04:18:43;;;;;;;14.15;10.52;;;15.60;99.90;;;;;;5038623;28;20071;-88
2021/09/27 04:21:29;;;;;;;13.20;10.15;;;15.40;99.90;;;;;;5038827;28;20037;-87
2021/09/27 04:24:16;;;;;;;15.18;10.45;;;15.20;99.90;;;;;;5038963;28;20078;-88
2021/09/27 04:27:03;;;;;;;14.45;9.68;;;15.10;99.90;;;;;;5038163;28;20488;-88
2021/09/27 04:29:54;;;;;;;12.23;9.32;;;15.10;99.90;;;;;;5038947;28;20025;-87
2021/09/27 04:33:16;;;;;;;15.52;9.52;;;15.50;99.90;;;;;;5038108;28;20506;-87
2021/09/27 04:36:11;;;;;;;13.75;9.85;;;15.50;99.90;;;;;;5038963;28;20021;-88
2021/09/27 04:38:38;;;;;;;11.43;9.00;;;15.40;99.90;;;;;;5038084;28;20021;-87
2021/09/27 04:41:22;;;;;;;13.20;10.23;;;15.40;99.90;;;;;;5019921;28;20049;-88
2021/09/27 04:44:21;;;;;;;10.95;9.13;;;15.10;99.90;;;;;;5015137;28;20022;-87
2021/09/27 04:47:07;;;;;;;11.57;9.48;;;15.10;99.90;;;;;;5014773;28;20037;-87
2021/09/27 04:49:54;;;;;;;11.48;9.20;;;15.20;99.90;;;;;;5014609;28;20024;-88
2021/09/27 04:52:47;;;;;;;10.75;9.25;;;15.30;99.90;;;;;;5014511;28;20045;-87
2021/09/27 04:55:29;;;;;;;12.40;9.50;;;15.40;99.90;;;;;;5014525;28;20034;-87
2021/09/27 04:58:04;;;;;;;10.77;8.77;;;15.30;99.90;;;;;;5014544;28;20548;-88
2021/09/27 05:00:45;;;;;;;11.25;9.15;;;15.30;99.90;;;;;;5014579;28;20026;-87
2021/09/27 05:03:20;;;;;;;11.13;9.40;;;15.40;99.90;;;;;;5014354;28;20026;-87
2021/09/27 05:06:18;;;;;;;13.32;9.00;;;15.40;99.90;;;;;;5015261;28;20022;-88
2021/09/27 05:08:53;;;;;;;10.82;9.50;;;15.40;99.90;;;;;;5012150;28;20203;-87
2021/09/27 05:11:38;;;;;;;12.45;10.00;;;15.40;99.90;;;;;;5014300;28;20049;-87
2021/09/27 05:14:03;;;;;;;10.85;9.40;;;15.40;99.90;;;;;;5014594;28;20263;-87
2021/09/27 05:16:35;;;;;;;10.18;9.15;;;15.20;99.90;;;;;;5014194;28;20390;-87
2021/09/27 05:19:16;;;;;;;13.93;9.70;;;15.30;99.90;;;;;;5014064;28;20072;-88
2021/09/27 05:22:14;;;;;;;10.00;9.00;;;15.40;99.90;;;;;;5014024;28;20429;-88
2021/09/27 05:25:17;;;;;;;10.77;9.23;;;15.50;99.90;;;;;;5013946;28;20026;-87
2021/09/27 05:28:06;;;;;;;15.27;9.50;;;15.50;99.90;;;;;;5013641;28;20393;-88
2021/09/27 05:30:37;;;;;;;11.40;8.75;;;15.50;99.90;;;;;;5014389;28;20032;-87
2021/09/27 05:33:24;;;;;;;10.82;8.93;;;15.50;99.90;;;;;;5014004;28;20026;-87
2021/09/27 05:36:15;;;;;;;10.70;9.30;;;15.30;99.90;;;;;;5014458;28;20382;-87
2021/09/27 05:38:46;;;;;;;11.93;9.80;;;15.20;99.90;;;;;;5013690;28;20033;-88
2021/09/27 05:41:45;;;;;;;11.63;9.88;;;15.20;99.90;;;;;;5014135;28;20561;-88
2021/09/27 05:44:10;;;;;;;11.90;9.68;;;15.30;99.90;;;;;;5014213;28;20025;-87
2021/09/27 05:46:58;;;;;;;11.30;9.90;;;15.40;99.90;;;;;;5020584;28;20029;-86
2021/09/27 05:49:35;;;;;;;10.45;9.25;;;15.40;99.90;;;;;;5028335;28;20149;-86
2021/09/27 05:52:20;;;;;;;13.35;9.75;;;15.40;99.90;;;;;;5018420;28;20100;-87
2021/09/27 05:54:49;;;;;;;12.70;9.98;;;15.50;99.90;;;;;;5013818;28;20024;-89
2021/09/27 05:57:48;;;;;;;12.60;9.10;;;15.40;99.90;;;;;;5013927;28;20030;-87
2021/09/27 06:00:20;;;;;;;16.85;8.70;;;15.20;99.90;;;;;;4989489;28;20049;-88
2021/09/27 06:03:06;;;;;;;13.07;9.02;;;14.90;99.90;;;;;;5013522;28;20112;-87
2021/09/27 06:05:46;;;;;;;13.95;9.00;;;14.80;99.90;;;;;;5013604;28;20026;-88
2021/09/27 06:08:19;;;;;;;13.88;8.73;;;14.80;99.90;;;;;;5013291;28;20022;-87
2021/09/27 06:11:05;;;;;;;14.07;8.68;;;14.90;99.90;;;;;;5013158;28;20033;-87
2021/09/27 06:13:34;;;;;;;14.20;8.70;;;15.10;99.90;;;;;;5014532;28;20079;-88
2021/09/27 06:16:25;;;;;;;10.00;8.77;;;15.40;99.90;;;;;;5013253;28;20482;-88
2021/09/27 06:19:19;;;;;;;11.55;9.20;;;15.70;99.90;;;;;;5013485;28;20026;-87
2021/09/27 06:21:48;;;;;;;12.75;8.88;;;15.80;99.90;;;;;;5012947;28;20030;-88
2021/09/27 06:24:34;;;;;;;12.82;9.55;;;15.80;99.90;;;;;;5013350;28;20045;-87
2021/09/27 06:27:22;;;;;;;10.45;8.75;;;15.90;99.90;;;;;;5014555;28;20026;-87
2021/09/27 06:30:07;;;;;;;9.43;8.43;;;15.90;99.90;;;;;;5013061;28;20033;-88
2021/09/27 06:32:36;;;;;;;;;;;15.80;99.90;;;;;;5014636;28;20029;-88
2021/09/27 06:35:07;;;;;;;19.23;9.27;;;15.70;99.90;;;;;;5013351;28;20000;-87
2021/09/27 06:37:34;;;;;;;11.32;8.85;;;15.80;99.90;;;;;;5013033;28;20038;-88
2021/09/27 06:40:08;;;;;;;13.00;8.77;;;15.90;99.90;;;;;;5013371;28;20044;-88
2021/09/27 06:42:34;;;;;;;11.93;8.73;;;15.90;99.90;;;;;;5013288;28;20416;-87
2021/09/27 06:45:00;;;;;;;11.98;8.98;;;15.90;99.90;;;;;;5012513;28;20141;-87
2021/09/27 06:47:25;;;;;;;11.52;9.20;;;16.10;99.90;;;;;;5013773;28;20014;-86
2021/09/27 06:49:51;;;;;;;11.57;8.70;;;16.20;99.90;;;;;;5013295;28;20466;-86
2021/09/27 06:52:17;;;;;;;12.90;8.20;;;16.30;99.90;;;;;;5012725;28;20030;-87
2021/09/27 06:54:44;;;;;;;11.63;8.65;;;16.30;99.90;;;;;;5013385;28;20381;-87
2021/09/27 06:57:10;;;;;;;11.45;8.57;;;16.30;99.90;;;;;;5013494;28;20026;-87
2021/09/27 06:59:36;;;;;;;12.07;8.63;;;16.20;99.90;;;;;;5012503;28;20030;-87
2021/09/27 07:02:04;;;;;;;13.52;8.75;;;16.10;99.90;;;;;;5013032;28;20026;-86
2021/09/27 07:04:30;;;;;;;10.23;8.23;;;16.30;99.90;;;;;;5012584;28;20030;-86
2021/09/27 07:06:57;;;;;;;13.68;8.70;;;16.30;99.90;;;;;;5012345;28;20026;-86
2021/09/27 07:09:22;;;;;;;9.82;8.35;;;16.20;99.90;;;;;;5012248;28;20030;-86
2021/09/27 07:11:48;;;;;;;12.40;8.63;;;16.10;99.90;;;;;;5012438;28;20105;-86
2021/09/27 07:14:14;;;;;;;13.05;8.63;;;16.10;99.90;;;;;;5013401;28;20026;-86
2021/09/27 07:16:41;;;;;;;10.93;8.73;;;16.30;99.90;;;;;;5012767;28;20053;-87
2021/09/27 07:19:10;;;;;;;16.67;9.13;;;16.20;99.90;;;;;;5012443;28;20033;-86
2021/09/27 07:21:37;;;;;;;19.05;8.70;;;16.40;99.90;;;;;;5013040;28;20355;-86
2021/09/27 07:24:04;;;;;;;13.90;8.27;;;16.60;99.90;;;;;;5012605;28;20141;-86
2021/09/27 07:26:31;;;;;;;13.88;7.72;;;16.90;99.90;;;;;;5012158;28;20486;-86
2021/09/27 07:28:57;;;;;;;10.32;8.02;;;17.20;99.90;;;;;;5012147;28;20026;-86
2021/09/27 07:31:28;;;;;;;10.40;8.20;;;17.30;99.90;;;;;;5013500;28;20068;-87
2021/09/27 07:33:54;;;;;;;9.45;6.93;;;17.30;99.90;;;;;;5012144;28;20374;-86
2021/09/27 07:36:20;;;;;;;8.18;6.60;;;17.40;99.90;;;;;;5012022;28;20108;-86
2021/09/27 07:38:46;;;;;;;10.88;7.88;;;17.70;99.90;;;;;;5012148;28;20064;-86
2021/09/27 07:41:12;;;;;;;9.35;7.03;;;18.00;99.90;;;;;;5046162;28;20424;-83
2021/09/27 07:43:39;;;;;;;8.60;6.95;;;17.80;99.90;;;;;;5038381;28;20033;-82
2021/09/27 07:46:05;;;;;;;9.93;6.93;;;17.70;99.90;;;;;;5039114;28;20396;-82
2021/09/27 07:48:30;;;;;;;7.70;6.65;;;17.70;99.90;;;;;;5038828;28;20522;-82
2021/09/27 07:50:56;;;;;;;8.07;7.03;;;17.80;99.90;;;;;;5038655;28;20029;-83
2021/09/27 07:53:23;;;;;;;8.20;6.90;;;17.90;99.90;;;;;;5038744;28;20021;-82
2021/09/27 07:55:50;;;;;;;9.80;6.88;;;18.10;99.90;;;;;;5038591;28;20492;-82
2021/09/27 07:58:18;;;;;;;11.98;6.78;;;18.30;99.90;;;;;;5038587;28;20029;-82
2021/09/27 08:00:45;;;;;;;10.13;6.60;;;18.40;99.90;;;;;;5038674;28;20025;-83
2021/09/27 08:03:11;;;;;;;14.73;6.93;;;18.40;99.90;;;;;;5057323;28;20033;-85
2021/09/27 08:05:39;;;;;;;9.13;6.68;;;18.30;99.90;;;;;;5038731;28;20025;-86
2021/09/27 08:08:06;;;;;;;9.32;6.35;;;18.20;99.90;;;;;;5038445;28;20028;-86
2021/09/27 08:10:34;;;;;;;8.38;6.32;;;18.40;99.90;;;;;;5038419;28;20399;-86
2021/09/27 08:13:00;;;;;;;9.93;6.35;;;18.70;99.90;;;;;;5056195;28;20104;-86
2021/09/27 08:15:29;;;;;;;8.93;6.07;;;18.70;99.90;;;;;;5038617;28;20056;-85
2021/09/27 08:17:55;;;;;;;8.63;6.18;;;18.90;99.90;;;;;;5038217;28;20032;-86
2021/09/27 08:20:29;;;;;;;7.53;6.40;;;18.60;99.90;;;;;;5038446;28;20029;-85
2021/09/27 08:22:56;;;;;;;8.55;6.22;;;18.60;99.90;;;;;;5038250;28;20502;-86
2021/09/27 08:25:24;;;;;;;6.78;6.05;;;18.80;99.90;;;;;;5038059;28;20028;-86
2021/09/27 08:27:51;;;;;;;6.85;6.05;;;19.10;99.90;;;;;;5038728;28;20028;-85
2021/09/27 08:30:25;;;;;;;9.70;5.75;;;19.40;99.90;;;;;;5037865;28;20021;-86
2021/09/27 08:32:50;;;;;;;7.30;5.63;;;19.40;99.90;;;;;;5038105;28;20082;-85
2021/09/27 08:35:17;;;;;;;8.35;5.93;;;19.60;99.90;;;;;;5037949;28;20021;-85
2021/09/27 08:37:44;;;;;;;7.55;5.55;;;19.70;99.90;;;;;;5037805;28;20021;-86
2021/09/27 08:40:30;;;;;;;8.18;5.22;;;19.80;99.90;;;;;;5037584;28;20040;-86
2021/09/27 08:42:58;;;;;;;7.82;5.05;;;19.60;99.90;;;;;;5021110;28;20028;-86
2021/09/27 08:45:28;;;;;;;5.85;4.60;;;19.80;99.90;;;;;;5037780;28;20017;-86
2021/09/27 08:48:18;;;;;;;4.78;4.30;;;19.70;99.90;;;;;;5037709;28;20025;-86
2021/09/27 08:50:44;;;;;;;6.95;4.28;;;20.00;99.90;;;;;;5037656;28;20037;-85
2021/09/27 08:53:31;;;;;;;5.07;3.95;;;19.90;99.90;;;;;;5037490;28;20385;-85
2021/09/27 08:56:37;;;;;;;10.48;4.20;;;19.70;99.90;;;;;;5037522;28;20021;-86
2021/09/27 08:59:21;;;;;;;8.00;3.60;;;20.30;99.90;;;;;;5001857;28;20035;-85
2021/09/27 09:02:16;;;;;;;7.90;3.40;;;20.10;99.90;;;;;;5037520;28;20416;-85
2021/09/27 09:05:08;;;;;;;8.02;4.30;;;20.40;99.90;;;;;;5037730;28;20029;-86
2021/09/27 09:07:41;;;;;;;7.15;4.07;;;20.40;99.90;;;;;;5024415;28;20040;-86
2021/09/27 09:10:08;;;;;;;5.20;3.42;;;20.40;99.90;;;;;;5037500;28;20073;-86
2021/09/27 09:12:47;;;;;;;4.82;3.58;;;20.50;99.90;;;;;;5037348;28;20025;-86
2021/09/27 09:15:24;;;;;;;5.05;3.30;;;20.90;99.90;;;;;;5037199;28;20016;-85
2021/09/27 09:18:01;;;;;;;5.03;3.50;;;21.10;99.90;;;;;;5055100;28;20120;-85
2021/09/27 09:20:56;;;;;;;5.40;3.50;;;21.10;99.90;;;;;;5037128;28;20025;-86
2021/09/27 09:23:35;;;;;;;5.47;3.63;;;21.30;99.90;;;;;;5037198;28;20114;-86
2021/09/27 09:26:08;;;;;;;4.30;3.22;;;21.00;99.90;;;;;;5037442;28;20170;-86
2021/09/27 09:28:35;;;;;;;4.73;3.60;;;21.50;99.90;;;;;;5055586;28;20033;-86
2021/09/27 09:31:07;;;;;;;4.72;3.40;;;21.20;99.90;;;;;;5037287;28;20025;-86
2021/09/27 09:33:45;;;;;;;5.35;3.28;;;20.90;99.90;;;;;;5036811;28;20027;-86
2021/09/27 09:36:16;;;;;;;6.97;3.35;;;21.20;99.90;;;;;;5037370;28;20045;-85
2021/09/27 09:38:44;;;;;;;3.95;3.00;;;21.40;99.90;;;;;;5036750;28;20511;-87
2021/09/27 09:41:10;;;;;;;5.47;2.92;;;21.40;99.90;;;;;;5017474;28;20053;-86
2021/09/27 09:43:40;;;;;;;5.47;3.17;;;20.90;99.90;;;;;;5015105;28;20116;-86
2021/09/27 09:46:11;;;;;;;4.18;3.38;;;21.50;99.90;;;;;;5013872;28;20030;-88
2021/09/27 09:48:59;;;;;;;5.20;2.92;;;21.20;99.90;;;;;;5013831;28;20501;-87
2021/09/27 09:51:56;;;;;;;5.32;2.95;;;20.80;99.90;;;;;;5006733;28;20049;-87
2021/09/27 09:54:27;;;;;;;5.35;3.10;;;20.60;99.90;;;;;;5014023;28;20025;-88
2021/09/27 09:57:16;;;;;;;9.25;2.97;;;20.20;99.90;;;;;;5014473;28;20379;-87
2021/09/27 10:00:13;;;;;;;3.83;2.90;;;20.10;99.90;;;;;;5014396;28;20085;-87
2021/09/27 10:02:41;;;;;;;4.68;3.30;;;20.60;99.90;;;;;;5006213;28;20041;-86
2021/09/27 10:05:20;;;;;;;3.95;2.70;;;21.40;99.90;;;;;;5013906;28;20044;-86
2021/09/27 10:07:54;;;;;;;4.10;2.85;;;22.00;99.90;;;;;;5016675;28;20367;-86
2021/09/27 10:10:42;;;;;;;4.50;2.83;;;22.40;99.90;;;;;;5021139;28;20080;-86
2021/09/27 10:13:35;;;;;;;5.30;2.53;;;22.70;99.90;;;;;;5015222;28;20473;-86
2021/09/27 10:16:07;;;;;;;4.57;2.40;;;22.60;99.90;;;;;;5013382;28;20064;-86
2021/09/27 10:18:36;;;;;;;4.78;2.40;;;22.70;99.90;;;;;;5013154;28;20022;-86
2021/09/27 10:21:21;;;;;;;6.07;2.67;;;22.60;99.90;;;;;;5012810;28;20140;-85
2021/09/27 10:23:56;;;;;;;3.60;2.65;;;23.60;99.90;;;;;;5012951;28;20462;-86
2021/09/27 10:26:27;;;;;;;5.38;2.08;;;24.10;99.90;;;;;;5012949;28;20030;-86
2021/09/27 10:28:58;;;;;;;3.28;2.10;;;24.40;99.90;;;;;;5012848;28;20022;-86
2021/09/27 10:31:25;;;;;;;3.42;2.28;;;24.20;99.90;;;;;;5012777;28;20552;-87
2021/09/27 10:33:56;;;;;;;4.00;1.95;;;23.90;99.90;;;;;;5012955;28;20024;-86
2021/09/27 10:36:43;;;;;;;2.53;1.75;;;23.50;99.90;;;;;;5012805;28;20033;-87
2021/09/27 10:39:12;;;;;;;2.45;1.70;;;23.20;99.90;;;;;;5012672;28;20026;-87
2021/09/27 10:41:55;;;;;;;5.05;1.80;;;23.00;99.90;;;;;;5035673;28;20033;-88
2021/09/27 10:44:34;;;;;;;2.80;1.50;;;22.60;99.90;;;;;;5035683;28;20025;-87
2021/09/27 10:47:31;;;;;;;4.63;2.00;;;22.00;99.90;;;;;;5035688;28;20056;-86
2021/09/27 10:50:04;;;;;;;2.83;2.00;;;21.90;99.90;;;;;;5034246;28;20032;-87
2021/09/27 10:52:41;;;;;;;2.43;1.90;;;22.30;99.90;;;;;;5035515;28;20072;-87
2021/09/27 10:55:10;;;;;;;5.72;2.45;;;22.00;99.90;;;;;;5035646;28;20495;-87
2021/09/27 10:57:46;;;;;;;2.55;1.70;;;21.90;99.90;;;;;;5035435;28;20021;-87
2021/09/27 11:00:36;;;;;;;2.50;2.05;;;23.20;99.90;;;;;;5035501;28;20021;-86
2021/09/27 11:03:22;;;;;;;3.22;1.63;;;24.10;99.90;;;;;;5034906;28;20106;-86
2021/09/27 11:05:55;;;;;;;4.15;1.63;;;23.80;99.90;;;;;;5053299;28;20114;-86
2021/09/27 11:08:55;;;;;;;3.42;1.55;;;23.20;99.90;;;;;;5035409;28;20025;-86
2021/09/27 11:11:29;;;;;;;2.88;2.15;;;23.70;99.90;;;;;;5035235;28;20491;-86
2021/09/27 11:14:14;;;;;;;2.00;1.60;;;23.50;99.90;;;;;;5035352;28;20017;-86
2021/09/27 11:16:40;;;;;;;4.13;1.70;;;23.20;99.90;;;;;;5055088;28;20017;-86
2021/09/27 11:19:50;;;;;;;4.38;1.83;;;23.10;99.90;;;;;;5059777;28;20036;-85
2021/09/27 11:22:20;;;;;;;1.98;1.65;;;22.40;99.90;;;;;;5040974;28;20033;-86
2021/09/27 11:24:49;;;;;;;2.05;1.70;;;22.50;99.90;;;;;;5042043;28;20028;-87
2021/09/27 11:27:18;;;;;;;3.30;2.00;;;22.80;99.90;;;;;;5041894;28;20063;-86
2021/09/27 11:29:53;;;;;;;2.85;1.77;;;23.10;99.90;;;;;;5041982;28;20116;-86
2021/09/27 11:32:22;;;;;;;3.35;1.58;;;24.10;99.90;;;;;;5041655;28;20025;-86
2021/09/27 11:34:56;;;;;;;3.53;1.48;;;24.30;99.90;;;;;;5042759;28;20466;-86
2021/09/27 11:37:27;;;;;;;2.43;1.70;;;23.70;99.90;;;;;;5041855;28;20052;-86
2021/09/27 11:40:11;;;;;;;2.67;1.85;;;23.60;99.90;;;;;;5041539;28;20283;-86
2021/09/27 11:42:42;;;;;;;4.47;1.67;;;23.40;99.90;;;;;;5041781;28;20048;-86
2021/09/27 11:45:26;;;;;;;9.15;1.90;;;22.60;99.90;;;;;;5041771;28;20021;-85
2021/09/27 11:48:06;;;;;;;5.53;1.83;;;22.50;99.90;;;;;;5041836;28;20120;-86
2021/09/27 11:50:44;;;;;;;4.13;1.77;;;22.10;99.90;;;;;;5042086;28;20051;-87
2021/09/27 11:53:19;;;;;;;5.80;2.00;;;21.90;99.90;;;;;;5042151;28;20032;-87
2021/09/27 11:55:54;;;;;;;3.70;1.90;;;21.90;99.90;;;;;;5042272;28;20425;-86
2021/09/27 11:58:43;;;;;;;2.40;1.90;;;22.10;99.90;;;;;;5042455;28;20048;-85
2021/09/27 12:01:33;;;;;;;5.07;1.83;;;22.50;99.90;;;;;;5041501;28;20485;-86
2021/09/27 12:04:14;;;;;;;4.20;1.50;;;22.90;99.90;;;;;;5041626;28;20057;-85
2021/09/27 12:06:45;;;;;;;3.78;1.73;;;23.10;99.90;;;;;;5042657;28;20479;-85
2021/09/27 12:09:19;;;;;;;3.28;1.95;;;23.20;99.90;;;;;;5041256;28;20476;-86
2021/09/27 12:11:54;;;;;;;3.00;1.35;;;23.80;99.90;;;;;;5042070;28;20476;-85
2021/09/27 12:14:43;;;;;;;4.22;1.35;;;23.90;99.90;;;;;;5041719;28;20044;-86
2021/09/27 12:17:15;;;;;;;1.55;1.20;;;23.50;99.90;;;;;;5042170;28;20090;-86
2021/09/27 12:19:51;;;;;;;8.63;1.42;;;23.10;99.90;;;;;;5049703;28;20021;-86
2021/09/27 12:22:22;;;;;;;1.77;1.20;;;23.00;99.90;;;;;;5063490;28;20411;-85
2021/09/27 12:24:50;;;;;;;1.83;1.25;;;23.00;99.90;;;;;;5042071;28;20025;-85
2021/09/27 12:27:19;;;;;;;5.70;1.35;;;22.70;99.90;;;;;;5041373;28;20029;-86
2021/09/27 12:30:03;;;;;;;1.40;1.30;;;22.40;99.90;;;;;;5055122;28;20025;-86
2021/09/27 12:32:31;;;;;;;2.72;1.25;;;22.20;99.90;;;;;;5038234;28;20048;-87
2021/09/27 12:34:59;;;;;;;4.70;1.38;;;22.00;99.90;;;;;;5038204;28;20078;-85
2021/09/27 12:37:34;;;;;;;1.98;1.52;;;21.90;99.90;;;;;;5037924;28;20056;-86
2021/09/27 12:39:59;;;;;;;2.45;1.05;;;21.80;99.90;;;;;;5038025;28;20036;-86
2021/09/27 12:42:29;;;;;;;1.55;1.10;;;22.10;99.90;;;;;;5038100;28;20051;-85
2021/09/27 12:45:22;;;;;;;4.55;1.20;;;22.40;99.90;;;;;;5037823;28;20052;-85
2021/09/27 12:47:49;;;;;;;4.43;1.17;;;22.30;99.90;;;;;;5055898;28;20025;-86
2021/09/27 12:50:19;;;;;;;2.90;1.20;;;22.20;99.90;;;;;;5037586;28;20369;-86
2021/09/27 12:52:59;;;;;;;2.22;1.10;;;22.10;99.90;;;;;;5037742;28;20032;-86
2021/09/27 12:55:54;;;;;;;3.80;1.67;;;21.90;99.90;;;;;;5037880;28;20033;-86
2021/09/27 12:58:43;;;;;;;2.55;1.30;;;21.80;99.90;;;;;;5037748;28;20029;-86
2021/09/27 13:01:18;;;;;;;3.55;1.15;;;21.60;99.90;;;;;;5037594;28;20037;-86
2021/09/27 13:03:59;;;;;;;1.90;1.05;;;21.50;99.90;;;;;;5037639;28;20450;-85
2021/09/27 13:06:32;;;;;;;1.73;1.20;;;21.50;99.90;;;;;;5037469;28;20064;-86
2021/09/27 13:09:32;;;;;;;1.60;1.10;;;21.40;99.90;;;;;;5037468;28;20472;-87
2021/09/27 13:12:27;;;;;;;2.47;1.10;;;21.60;99.90;;;;;;4985297;28;20037;-86
2021/09/27 13:15:15;;;;;;;3.13;1.60;;;21.70;99.90;;;;;;5037643;28;20472;-87
2021/09/27 13:18:03;;;;;;;3.28;1.20;;;21.70;99.90;;;;;;5038182;28;20272;-87
2021/09/27 13:20:56;;;;;;;1.83;1.00;;;21.80;99.90;;;;;;5037218;28;20565;-86
2021/09/27 13:23:24;;;;;;;2.88;1.30;;;21.80;99.90;;;;;;5037207;28;20024;-87
2021/09/27 13:26:04;;;;;;;2.95;1.60;;;21.90;99.90;;;;;;5037823;28;20350;-86
2021/09/27 13:28:51;;;;;;;2.25;1.42;;;21.80;99.90;;;;;;5037064;28;20119;-86
2021/09/27 13:31:24;;;;;;;5.30;1.77;;;21.80;99.90;;;;;;5037281;28;20025;-86